sensor_id;sensor_type;location;lat;lon;timestamp;temperature;humidity
11532;DHT22;5822;51.000;5.874;2023-05-07T00:02:22;16.50;99.90
11532;DHT22;5822;51.000;5.874;2023-05-07T00:04:48;16.50;99.90
11532;DHT22;5822;51.000;5.874;2023-05-07T00:07:14;16.40;99.90
11532;DHT22;5822;51.000;5.874;2023-05-07T00:09:40;16.40;99.90
11532;DHT22;5822;51.000;5.874;2023-05-07T00:12:07;16.40;99.90
11532;DHT22;5822;51.000;5.874;2023-05-07T00:14:32;16.40;99.90
11532;DHT22;5822;51.000;5.874;2023-05-07T00:16:58;16.40;99.90
11532;DHT22;5822;51.000;5.874;2023-05-07T00:19:24;16.30;99.90
11532;DHT22;5822;51.000;5.874;2023-05-07T00:21:49;16.30;99.90
11532;DHT22;5822;51.000;5.874;2023-05-07T00:24:15;16.30;99.90
11532;DHT22;5822;51.000;5.874;2023-05-07T00:26:41;16.30;99.90
11532;DHT22;5822;51.000;5.874;2023-05-07T00:29:07;16.30;99.90
11532;DHT22;5822;51.000;5.874;2023-05-07T00:31:32;16.30;99.90
11532;DHT22;5822;51.000;5.874;2023-05-07T00:33:58;16.40;99.90
11532;DHT22;5822;51.000;5.874;2023-05-07T00:36:24;16.40;99.90
11532;DHT22;5822;51.000;5.874;2023-05-07T00:38:49;16.40;99.90
11532;DHT22;5822;51.000;5.874;2023-05-07T00:41:15;16.40;99.90
11532;DHT22;5822;51.000;5.874;2023-05-07T00:43:41;16.40;99.90
11532;DHT22;5822;51.000;5.874;2023-05-07T00:46:06;16.30;99.90
11532;DHT22;5822;51.000;5.874;2023-05-07T00:48:32;16.40;99.90
11532;DHT22;5822;51.000;5.874;2023-05-07T00:50:58;16.40;99.90
11532;DHT22;5822;51.000;5.874;2023-05-07T00:53:23;16.40;99.90
11532;DHT22;5822;51.000;5.874;2023-05-07T00:55:49;16.40;99.90
11532;DHT22;5822;51.000;5.874;2023-05-07T00:58:16;16.40;99.90
11532;DHT22;5822;51.000;5.874;2023-05-07T01:00:41;16.40;99.90
11532;DHT22;5822;51.000;5.874;2023-05-07T01:03:07;16.40;99.90
11532;DHT22;5822;51.000;5.874;2023-05-07T01:05:35;16.50;99.90
11532;DHT22;5822;51.000;5.874;2023-05-07T01:08:02;16.50;99.90
11532;DHT22;5822;51.000;5.874;2023-05-07T01:10:29;16.50;99.90
11532;DHT22;5822;51.000;5.874;2023-05-07T01:12:58;16.50;99.90
11532;DHT22;5822;51.000;5.874;2023-05-07T01:15:25;16.60;99.90
11532;DHT22;5822;51.000;5.874;2023-05-07T01:17:50;16.50;99.90
11532;DHT22;5822;51.000;5.874;2023-05-07T01:20:18;16.40;99.90
11532;DHT22;5822;51.000;5.874;2023-05-07T01:22:44;16.40;99.90
11532;DHT22;5822;51.000;5.874;2023-05-07T01:25:10;16.40;99.90
11532;DHT22;5822;51.000;5.874;2023-05-07T01:27:35;16.40;99.90
11532;DHT22;5822;51.000;5.874;2023-05-07T01:30:03;16.50;99.90
11532;DHT22;5822;51.000;5.874;2023-05-07T01:32:53;16.50;99.90
11532;DHT22;5822;51.000;5.874;2023-05-07T01:35:20;16.50;99.90
11532;DHT22;5822;51.000;5.874;2023-05-07T01:37:48;16.50;99.90
11532;DHT22;5822;51.000;5.874;2023-05-07T01:40:14;16.50;99.90
11532;DHT22;5822;51.000;5.874;2023-05-07T01:42:42;16.50;99.90
11532;DHT22;5822;51.000;5.874;2023-05-07T01:45:09;16.40;99.90
11532;DHT22;5822;51.000;5.874;2023-05-07T01:47:36;16.40;99.90
11532;DHT22;5822;51.000;5.874;2023-05-07T01:50:01;16.40;99.90
11532;DHT22;5822;51.000;5.874;2023-05-07T01:52:28;16.40;99.90
11532;DHT22;5822;51.000;5.874;2023-05-07T01:54:54;16.30;99.90
11532;DHT22;5822;51.000;5.874;2023-05-07T01:57:19;16.30;99.90
11532;DHT22;5822;51.000;5.874;2023-05-07T01:59:45;16.30;99.90
11532;DHT22;5822;51.000;5.874;2023-05-07T02:02:11;16.30;99.90
11532;DHT22;5822;51.000;5.874;2023-05-07T02:04:36;16.30;99.90
11532;DHT22;5822;51.000;5.874;2023-05-07T02:07:02;16.30;99.90
11532;DHT22;5822;51.000;5.874;2023-05-07T02:09:28;16.30;99.90
11532;DHT22;5822;51.000;5.874;2023-05-07T02:11:53;16.30;99.90
11532;DHT22;5822;51.000;5.874;2023-05-07T02:14:19;16.30;99.90
11532;DHT22;5822;51.000;5.874;2023-05-07T02:16:45;16.20;99.90
11532;DHT22;5822;51.000;5.874;2023-05-07T02:19:11;16.20;99.90
11532;DHT22;5822;51.000;5.874;2023-05-07T02:21:37;16.20;99.90
11532;DHT22;5822;51.000;5.874;2023-05-07T02:24:02;16.20;99.90
11532;DHT22;5822;51.000;5.874;2023-05-07T02:26:28;16.20;99.90
11532;DHT22;5822;51.000;5.874;2023-05-07T02:28:54;16.20;99.90
11532;DHT22;5822;51.000;5.874;2023-05-07T02:31:20;16.10;99.90
11532;DHT22;5822;51.000;5.874;2023-05-07T02:33:45;16.00;99.90
11532;DHT22;5822;51.000;5.874;2023-05-07T02:36:12;16.00;99.90
11532;DHT22;5822;51.000;5.874;2023-05-07T02:38:38;16.00;99.90
11532;DHT22;5822;51.000;5.874;2023-05-07T02:41:04;16.00;99.90
11532;DHT22;5822;51.000;5.874;2023-05-07T02:43:29;15.90;99.90
11532;DHT22;5822;51.000;5.874;2023-05-07T02:46:05;15.90;99.90
11532;DHT22;5822;51.000;5.874;2023-05-07T02:48:32;15.90;99.90
11532;DHT22;5822;51.000;5.874;2023-05-07T02:50:58;15.90;99.90
11532;DHT22;5822;51.000;5.874;2023-05-07T02:53:24;16.00;99.90
11532;DHT22;5822;51.000;5.874;2023-05-07T02:55:56;16.00;99.90
11532;DHT22;5822;51.000;5.874;2023-05-07T02:58:23;16.00;99.90
11532;DHT22;5822;51.000;5.874;2023-05-07T03:00:48;16.10;99.90
11532;DHT22;5822;51.000;5.874;2023-05-07T03:03:15;16.10;99.90
11532;DHT22;5822;51.000;5.874;2023-05-07T03:05:41;16.00;99.90
11532;DHT22;5822;51.000;5.874;2023-05-07T03:08:07;16.00;99.90
11532;DHT22;5822;51.000;5.874;2023-05-07T03:10:33;16.00;99.90
11532;DHT22;5822;51.000;5.874;2023-05-07T03:12:59;16.10;99.90
11532;DHT22;5822;51.000;5.874;2023-05-07T03:15:24;16.10;99.90
11532;DHT22;5822;51.000;5.874;2023-05-07T03:17:50;16.10;99.90
11532;DHT22;5822;51.000;5.874;2023-05-07T03:20:16;16.10;99.90
11532;DHT22;5822;51.000;5.874;2023-05-07T03:22:42;16.10;99.90
11532;DHT22;5822;51.000;5.874;2023-05-07T03:25:08;16.00;99.90
11532;DHT22;5822;51.000;5.874;2023-05-07T03:27:36;16.00;99.90
11532;DHT22;5822;51.000;5.874;2023-05-07T03:30:01;16.00;99.90
11532;DHT22;5822;51.000;5.874;2023-05-07T03:32:27;16.00;99.90
11532;DHT22;5822;51.000;5.874;2023-05-07T03:34:53;15.90;99.90
11532;DHT22;5822;51.000;5.874;2023-05-07T03:37:19;16.00;99.90
11532;DHT22;5822;51.000;5.874;2023-05-07T03:39:44;15.90;99.90
11532;DHT22;5822;51.000;5.874;2023-05-07T03:42:10;15.90;99.90
11532;DHT22;5822;51.000;5.874;2023-05-07T03:44:36;15.90;99.90
11532;DHT22;5822;51.000;5.874;2023-05-07T03:47:02;16.00;99.90
11532;DHT22;5822;51.000;5.874;2023-05-07T03:49:30;15.90;99.90
11532;DHT22;5822;51.000;5.874;2023-05-07T03:51:56;15.80;99.90
11532;DHT22;5822;51.000;5.874;2023-05-07T03:54:22;15.80;99.90
11532;DHT22;5822;51.000;5.874;2023-05-07T03:56:47;15.90;99.90
11532;DHT22;5822;51.000;5.874;2023-05-07T03:59:13;15.80;99.90
11532;DHT22;5822;51.000;5.874;2023-05-07T04:01:39;15.80;99.90
11532;DHT22;5822;51.000;5.874;2023-05-07T04:04:05;15.80;99.90
11532;DHT22;5822;51.000;5.874;2023-05-07T04:06:31;15.80;99.90
11532;DHT22;5822;51.000;5.874;2023-05-07T04:08:57;15.80;99.90
11532;DHT22;5822;51.000;5.874;2023-05-07T04:11:23;15.70;99.90
11532;DHT22;5822;51.000;5.874;2023-05-07T04:13:48;15.70;99.90
11532;DHT22;5822;51.000;5.874;2023-05-07T04:16:14;15.70;99.90
11532;DHT22;5822;51.000;5.874;2023-05-07T04:18:40;15.60;99.90
11532;DHT22;5822;51.000;5.874;2023-05-07T04:21:06;15.60;99.90
11532;DHT22;5822;51.000;5.874;2023-05-07T04:23:38;15.60;99.90
11532;DHT22;5822;51.000;5.874;2023-05-07T04:26:04;15.60;99.90
11532;DHT22;5822;51.000;5.874;2023-05-07T04:28:29;15.70;99.90
11532;DHT22;5822;51.000;5.874;2023-05-07T04:30:55;15.80;99.90
11532;DHT22;5822;51.000;5.874;2023-05-07T04:33:21;15.80;99.90
11532;DHT22;5822;51.000;5.874;2023-05-07T04:35:47;15.80;99.90
11532;DHT22;5822;51.000;5.874;2023-05-07T04:38:12;15.80;99.90
11532;DHT22;5822;51.000;5.874;2023-05-07T04:40:38;15.80;99.90
11532;DHT22;5822;51.000;5.874;2023-05-07T04:43:04;15.90;99.90
11532;DHT22;5822;51.000;5.874;2023-05-07T04:45:30;16.00;99.90
11532;DHT22;5822;51.000;5.874;2023-05-07T04:47:55;16.00;99.90
11532;DHT22;5822;51.000;5.874;2023-05-07T04:50:21;16.00;99.90
11532;DHT22;5822;51.000;5.874;2023-05-07T04:52:48;15.90;99.90
11532;DHT22;5822;51.000;5.874;2023-05-07T04:55:14;15.90;99.90
11532;DHT22;5822;51.000;5.874;2023-05-07T04:57:40;15.90;99.90
11532;DHT22;5822;51.000;5.874;2023-05-07T05:00:07;15.90;99.90
11532;DHT22;5822;51.000;5.874;2023-05-07T05:02:34;15.90;99.90
11532;DHT22;5822;51.000;5.874;2023-05-07T05:05:02;15.90;99.90
11532;DHT22;5822;51.000;5.874;2023-05-07T05:07:28;16.00;99.90
11532;DHT22;5822;51.000;5.874;2023-05-07T05:09:54;16.10;99.90
11532;DHT22;5822;51.000;5.874;2023-05-07T05:12:20;16.10;99.90
11532;DHT22;5822;51.000;5.874;2023-05-07T05:14:46;16.20;99.90
11532;DHT22;5822;51.000;5.874;2023-05-07T05:17:12;16.20;99.90
11532;DHT22;5822;51.000;5.874;2023-05-07T05:19:38;16.20;99.90
11532;DHT22;5822;51.000;5.874;2023-05-07T05:22:03;16.20;99.90
11532;DHT22;5822;51.000;5.874;2023-05-07T05:24:30;16.20;99.90
11532;DHT22;5822;51.000;5.874;2023-05-07T05:26:56;16.20;99.90
11532;DHT22;5822;51.000;5.874;2023-05-07T05:29:21;16.20;99.90
11532;DHT22;5822;51.000;5.874;2023-05-07T05:31:47;16.20;99.90
11532;DHT22;5822;51.000;5.874;2023-05-07T05:34:13;16.30;99.90
11532;DHT22;5822;51.000;5.874;2023-05-07T05:36:39;16.30;99.90
11532;DHT22;5822;51.000;5.874;2023-05-07T05:39:04;16.30;99.90
11532;DHT22;5822;51.000;5.874;2023-05-07T05:41:30;16.40;99.90
11532;DHT22;5822;51.000;5.874;2023-05-07T05:43:56;16.30;99.90
11532;DHT22;5822;51.000;5.874;2023-05-07T05:46:21;16.40;99.90
11532;DHT22;5822;51.000;5.874;2023-05-07T05:48:47;16.40;99.90
11532;DHT22;5822;51.000;5.874;2023-05-07T05:51:12;16.40;99.90
11532;DHT22;5822;51.000;5.874;2023-05-07T05:53:38;16.40;99.90
11532;DHT22;5822;51.000;5.874;2023-05-07T05:56:04;16.40;99.90
11532;DHT22;5822;51.000;5.874;2023-05-07T05:58:30;16.40;99.90
11532;DHT22;5822;51.000;5.874;2023-05-07T06:00:56;16.50;99.90
11532;DHT22;5822;51.000;5.874;2023-05-07T06:03:22;16.50;99.90
11532;DHT22;5822;51.000;5.874;2023-05-07T06:05:47;16.60;99.90
11532;DHT22;5822;51.000;5.874;2023-05-07T06:08:13;16.60;99.90
11532;DHT22;5822;51.000;5.874;2023-05-07T06:10:39;16.50;99.90
11532;DHT22;5822;51.000;5.874;2023-05-07T06:13:05;16.60;99.90
11532;DHT22;5822;51.000;5.874;2023-05-07T06:15:30;16.70;99.90
11532;DHT22;5822;51.000;5.874;2023-05-07T06:17:56;16.70;99.90
11532;DHT22;5822;51.000;5.874;2023-05-07T06:20:23;16.70;99.90
11532;DHT22;5822;51.000;5.874;2023-05-07T06:22:48;16.70;99.90
11532;DHT22;5822;51.000;5.874;2023-05-07T06:25:14;16.70;99.90
11532;DHT22;5822;51.000;5.874;2023-05-07T06:27:40;16.80;99.90
11532;DHT22;5822;51.000;5.874;2023-05-07T06:30:06;16.80;99.90
11532;DHT22;5822;51.000;5.874;2023-05-07T06:32:32;16.80;99.90
11532;DHT22;5822;51.000;5.874;2023-05-07T06:34:58;16.80;99.90
11532;DHT22;5822;51.000;5.874;2023-05-07T06:37:23;16.90;99.90
11532;DHT22;5822;51.000;5.874;2023-05-07T06:39:49;17.00;99.90
11532;DHT22;5822;51.000;5.874;2023-05-07T06:42:15;17.00;99.90
11532;DHT22;5822;51.000;5.874;2023-05-07T06:44:41;17.00;99.90
11532;DHT22;5822;51.000;5.874;2023-05-07T06:47:06;17.00;99.90
11532;DHT22;5822;51.000;5.874;2023-05-07T06:49:32;17.10;99.90
11532;DHT22;5822;51.000;5.874;2023-05-07T06:51:58;17.10;99.90
11532;DHT22;5822;51.000;5.874;2023-05-07T06:54:24;17.20;99.90
11532;DHT22;5822;51.000;5.874;2023-05-07T06:56:49;17.20;99.90
11532;DHT22;5822;51.000;5.874;2023-05-07T06:59:15;17.20;99.90
11532;DHT22;5822;51.000;5.874;2023-05-07T07:01:41;17.20;99.90
11532;DHT22;5822;51.000;5.874;2023-05-07T07:04:06;17.20;99.90
11532;DHT22;5822;51.000;5.874;2023-05-07T07:06:32;17.30;99.90
11532;DHT22;5822;51.000;5.874;2023-05-07T07:08:58;17.30;99.90
11532;DHT22;5822;51.000;5.874;2023-05-07T07:11:24;17.30;99.90
11532;DHT22;5822;51.000;5.874;2023-05-07T07:13:50;17.40;99.90
11532;DHT22;5822;51.000;5.874;2023-05-07T07:16:16;17.40;99.90
11532;DHT22;5822;51.000;5.874;2023-05-07T07:18:42;17.40;99.90
11532;DHT22;5822;51.000;5.874;2023-05-07T07:21:08;17.40;99.90
11532;DHT22;5822;51.000;5.874;2023-05-07T07:23:33;17.40;99.90
11532;DHT22;5822;51.000;5.874;2023-05-07T07:25:59;17.50;99.90
11532;DHT22;5822;51.000;5.874;2023-05-07T07:28:25;17.50;99.90
11532;DHT22;5822;51.000;5.874;2023-05-07T07:30:50;17.50;99.90
11532;DHT22;5822;51.000;5.874;2023-05-07T07:33:16;17.60;99.90
11532;DHT22;5822;51.000;5.874;2023-05-07T07:35:42;17.60;99.90
11532;DHT22;5822;51.000;5.874;2023-05-07T07:38:07;17.60;99.90
11532;DHT22;5822;51.000;5.874;2023-05-07T07:40:36;17.70;99.90
11532;DHT22;5822;51.000;5.874;2023-05-07T07:43:02;17.70;99.90
11532;DHT22;5822;51.000;5.874;2023-05-07T07:45:27;17.70;99.90
11532;DHT22;5822;51.000;5.874;2023-05-07T07:47:53;17.70;99.90
11532;DHT22;5822;51.000;5.874;2023-05-07T07:50:19;17.70;99.90
11532;DHT22;5822;51.000;5.874;2023-05-07T07:52:44;17.70;99.90
11532;DHT22;5822;51.000;5.874;2023-05-07T07:55:10;17.60;99.90
11532;DHT22;5822;51.000;5.874;2023-05-07T07:57:37;17.70;99.90
11532;DHT22;5822;51.000;5.874;2023-05-07T08:00:03;17.60;99.90
11532;DHT22;5822;51.000;5.874;2023-05-07T08:02:29;17.60;99.90
11532;DHT22;5822;51.000;5.874;2023-05-07T08:04:55;17.70;99.90
11532;DHT22;5822;51.000;5.874;2023-05-07T08:07:21;17.70;99.90
11532;DHT22;5822;51.000;5.874;2023-05-07T08:09:48;17.70;99.90
11532;DHT22;5822;51.000;5.874;2023-05-07T08:12:14;17.70;99.90
11532;DHT22;5822;51.000;5.874;2023-05-07T08:14:40;17.70;99.90
11532;DHT22;5822;51.000;5.874;2023-05-07T08:17:06;17.70;99.90
11532;DHT22;5822;51.000;5.874;2023-05-07T08:19:32;17.70;99.90
11532;DHT22;5822;51.000;5.874;2023-05-07T08:21:57;17.70;99.90
11532;DHT22;5822;51.000;5.874;2023-05-07T08:24:23;17.70;99.90
11532;DHT22;5822;51.000;5.874;2023-05-07T08:26:49;17.80;99.90
11532;DHT22;5822;51.000;5.874;2023-05-07T08:29:15;17.80;99.90
11532;DHT22;5822;51.000;5.874;2023-05-07T08:31:40;17.80;99.90
11532;DHT22;5822;51.000;5.874;2023-05-07T08:34:06;17.80;99.90
11532;DHT22;5822;51.000;5.874;2023-05-07T08:36:32;17.90;99.90
11532;DHT22;5822;51.000;5.874;2023-05-07T08:38:58;17.90;99.90
11532;DHT22;5822;51.000;5.874;2023-05-07T08:41:24;18.00;99.90
11532;DHT22;5822;51.000;5.874;2023-05-07T08:43:50;18.00;99.90
11532;DHT22;5822;51.000;5.874;2023-05-07T08:46:21;18.00;99.90
11532;DHT22;5822;51.000;5.874;2023-05-07T08:48:50;18.10;99.90
11532;DHT22;5822;51.000;5.874;2023-05-07T08:51:18;18.10;99.90
11532;DHT22;5822;51.000;5.874;2023-05-07T08:53:45;18.10;99.90
11532;DHT22;5822;51.000;5.874;2023-05-07T08:56:11;18.10;99.90
11532;DHT22;5822;51.000;5.874;2023-05-07T08:58:37;18.20;99.90
11532;DHT22;5822;51.000;5.874;2023-05-07T09:01:07;18.10;99.90
11532;DHT22;5822;51.000;5.874;2023-05-07T09:03:33;18.20;99.90
11532;DHT22;5822;51.000;5.874;2023-05-07T09:05:59;18.30;99.90
11532;DHT22;5822;51.000;5.874;2023-05-07T09:08:26;18.30;99.90
11532;DHT22;5822;51.000;5.874;2023-05-07T09:10:53;18.30;99.90
11532;DHT22;5822;51.000;5.874;2023-05-07T09:13:19;18.40;99.90
11532;DHT22;5822;51.000;5.874;2023-05-07T09:15:45;18.40;99.90
11532;DHT22;5822;51.000;5.874;2023-05-07T09:18:11;18.40;99.90
11532;DHT22;5822;51.000;5.874;2023-05-07T09:20:38;18.40;99.90
11532;DHT22;5822;51.000;5.874;2023-05-07T09:23:03;18.40;99.90
11532;DHT22;5822;51.000;5.874;2023-05-07T09:25:33;18.50;99.90
11532;DHT22;5822;51.000;5.874;2023-05-07T09:28:00;18.50;99.90
11532;DHT22;5822;51.000;5.874;2023-05-07T09:30:33;18.50;99.90
11532;DHT22;5822;51.000;5.874;2023-05-07T09:33:00;18.50;99.90
11532;DHT22;5822;51.000;5.874;2023-05-07T09:35:26;18.60;99.90
11532;DHT22;5822;51.000;5.874;2023-05-07T09:37:57;18.60;99.90
11532;DHT22;5822;51.000;5.874;2023-05-07T09:40:27;18.70;99.90
11532;DHT22;5822;51.000;5.874;2023-05-07T09:42:54;18.70;99.90
11532;DHT22;5822;51.000;5.874;2023-05-07T09:45:27;18.70;99.90
11532;DHT22;5822;51.000;5.874;2023-05-07T09:47:55;18.80;99.90
11532;DHT22;5822;51.000;5.874;2023-05-07T09:50:26;18.80;99.90
11532;DHT22;5822;51.000;5.874;2023-05-07T09:52:54;18.90;99.90
11532;DHT22;5822;51.000;5.874;2023-05-07T09:55:20;18.80;99.90
11532;DHT22;5822;51.000;5.874;2023-05-07T09:57:49;18.80;99.90
11532;DHT22;5822;51.000;5.874;2023-05-07T10:00:15;18.80;99.90
11532;DHT22;5822;51.000;5.874;2023-05-07T10:02:43;18.80;99.90
11532;DHT22;5822;51.000;5.874;2023-05-07T10:05:14;18.70;99.90
11532;DHT22;5822;51.000;5.874;2023-05-07T10:07:41;18.70;99.90
11532;DHT22;5822;51.000;5.874;2023-05-07T10:10:07;18.70;99.90
11532;DHT22;5822;51.000;5.874;2023-05-07T10:12:32;18.70;99.90
11532;DHT22;5822;51.000;5.874;2023-05-07T10:15:08;18.70;99.90
11532;DHT22;5822;51.000;5.874;2023-05-07T10:17:41;18.80;99.90
11532;DHT22;5822;51.000;5.874;2023-05-07T10:20:07;18.80;99.90
11532;DHT22;5822;51.000;5.874;2023-05-07T10:22:45;18.80;99.90
11532;DHT22;5822;51.000;5.874;2023-05-07T10:25:22;18.80;99.90
11532;DHT22;5822;51.000;5.874;2023-05-07T10:27:50;18.90;99.90
11532;DHT22;5822;51.000;5.874;2023-05-07T10:33:16;18.90;99.90
11532;DHT22;5822;51.000;5.874;2023-05-07T10:35:45;19.00;99.90
11532;DHT22;5822;51.000;5.874;2023-05-07T10:38:12;18.90;99.90
11532;DHT22;5822;51.000;5.874;2023-05-07T10:40:38;18.90;99.90
11532;DHT22;5822;51.000;5.874;2023-05-07T10:43:05;18.90;99.90
11532;DHT22;5822;51.000;5.874;2023-05-07T10:45:31;19.00;99.90
11532;DHT22;5822;51.000;5.874;2023-05-07T10:48:09;18.90;99.90
11532;DHT22;5822;51.000;5.874;2023-05-07T10:50:36;18.90;99.90
11532;DHT22;5822;51.000;5.874;2023-05-07T10:58:46;19.00;99.90
11532;DHT22;5822;51.000;5.874;2023-05-07T11:01:12;19.00;99.90
11532;DHT22;5822;51.000;5.874;2023-05-07T11:04:14;19.00;99.90
11532;DHT22;5822;51.000;5.874;2023-05-07T11:06:40;19.00;99.90
11532;DHT22;5822;51.000;5.874;2023-05-07T11:09:06;19.00;99.90
11532;DHT22;5822;51.000;5.874;2023-05-07T11:11:49;19.00;99.90
11532;DHT22;5822;51.000;5.874;2023-05-07T11:14:42;18.90;99.90
11532;DHT22;5822;51.000;5.874;2023-05-07T11:17:09;18.90;99.90
11532;DHT22;5822;51.000;5.874;2023-05-07T11:19:51;18.90;99.90
11532;DHT22;5822;51.000;5.874;2023-05-07T11:25:07;18.80;99.90
11532;DHT22;5822;51.000;5.874;2023-05-07T11:27:33;18.70;99.90
11532;DHT22;5822;51.000;5.874;2023-05-07T11:29:59;18.70;99.90
11532;DHT22;5822;51.000;5.874;2023-05-07T11:32:28;18.70;99.90
11532;DHT22;5822;51.000;5.874;2023-05-07T11:34:55;18.70;99.90
11532;DHT22;5822;51.000;5.874;2023-05-07T11:37:22;18.70;99.90
11532;DHT22;5822;51.000;5.874;2023-05-07T11:39:49;18.80;99.90
11532;DHT22;5822;51.000;5.874;2023-05-07T11:42:35;18.90;99.90
11532;DHT22;5822;51.000;5.874;2023-05-07T11:45:03;18.90;99.90
11532;DHT22;5822;51.000;5.874;2023-05-07T11:47:32;18.90;99.90
11532;DHT22;5822;51.000;5.874;2023-05-07T11:50:05;18.80;99.90
11532;DHT22;5822;51.000;5.874;2023-05-07T11:52:33;18.80;99.90
11532;DHT22;5822;51.000;5.874;2023-05-07T11:54:59;18.80;99.90
11532;DHT22;5822;51.000;5.874;2023-05-07T11:57:26;18.80;99.90
11532;DHT22;5822;51.000;5.874;2023-05-07T11:59:56;18.80;99.90
11532;DHT22;5822;51.000;5.874;2023-05-07T12:02:23;18.70;99.90
11532;DHT22;5822;51.000;5.874;2023-05-07T12:04:50;18.70;99.90
11532;DHT22;5822;51.000;5.874;2023-05-07T12:07:16;18.50;99.90
11532;DHT22;5822;51.000;5.874;2023-05-07T12:09:44;18.40;99.90
11532;DHT22;5822;51.000;5.874;2023-05-07T12:12:10;18.40;99.90
11532;DHT22;5822;51.000;5.874;2023-05-07T12:14:40;18.30;99.90
11532;DHT22;5822;51.000;5.874;2023-05-07T12:17:10;18.30;99.90
11532;DHT22;5822;51.000;5.874;2023-05-07T12:19:37;18.30;99.90
11532;DHT22;5822;51.000;5.874;2023-05-07T12:22:03;18.30;99.90
11532;DHT22;5822;51.000;5.874;2023-05-07T12:24:45;18.30;99.90
11532;DHT22;5822;51.000;5.874;2023-05-07T12:27:11;18.40;99.90
11532;DHT22;5822;51.000;5.874;2023-05-07T12:29:37;18.40;99.90
11532;DHT22;5822;51.000;5.874;2023-05-07T12:32:06;18.40;99.90
11532;DHT22;5822;51.000;5.874;2023-05-07T12:34:32;18.40;99.90
11532;DHT22;5822;51.000;5.874;2023-05-07T12:36:57;18.40;99.90
11532;DHT22;5822;51.000;5.874;2023-05-07T12:39:27;18.40;99.90
11532;DHT22;5822;51.000;5.874;2023-05-07T12:41:57;18.40;99.90
11532;DHT22;5822;51.000;5.874;2023-05-07T12:44:33;18.40;99.90
11532;DHT22;5822;51.000;5.874;2023-05-07T12:47:02;18.50;99.90
11532;DHT22;5822;51.000;5.874;2023-05-07T12:49:28;18.50;99.90
11532;DHT22;5822;51.000;5.874;2023-05-07T12:51:54;18.60;99.90
11532;DHT22;5822;51.000;5.874;2023-05-07T12:54:34;18.60;99.90
11532;DHT22;5822;51.000;5.874;2023-05-07T12:57:04;18.60;99.90
11532;DHT22;5822;51.000;5.874;2023-05-07T12:59:34;18.70;99.90
11532;DHT22;5822;51.000;5.874;2023-05-07T13:02:01;18.70;99.90
11532;DHT22;5822;51.000;5.874;2023-05-07T13:04:27;18.70;99.90
11532;DHT22;5822;51.000;5.874;2023-05-07T13:06:52;18.70;99.90
11532;DHT22;5822;51.000;5.874;2023-05-07T13:09:18;18.70;99.90
11532;DHT22;5822;51.000;5.874;2023-05-07T13:11:43;18.70;99.90
11532;DHT22;5822;51.000;5.874;2023-05-07T13:14:09;18.70;99.90
11532;DHT22;5822;51.000;5.874;2023-05-07T13:16:35;18.80;99.90
11532;DHT22;5822;51.000;5.874;2023-05-07T13:19:00;18.80;99.90
11532;DHT22;5822;51.000;5.874;2023-05-07T13:21:26;18.70;99.90
11532;DHT22;5822;51.000;5.874;2023-05-07T13:23:52;18.70;99.90
11532;DHT22;5822;51.000;5.874;2023-05-07T13:26:18;18.70;99.90
11532;DHT22;5822;51.000;5.874;2023-05-07T13:28:43;18.70;99.90
11532;DHT22;5822;51.000;5.874;2023-05-07T13:31:09;18.70;99.90
11532;DHT22;5822;51.000;5.874;2023-05-07T13:33:35;18.70;99.90
11532;DHT22;5822;51.000;5.874;2023-05-07T13:36:01;18.80;99.90
11532;DHT22;5822;51.000;5.874;2023-05-07T13:38:29;18.80;99.90
11532;DHT22;5822;51.000;5.874;2023-05-07T13:40:55;18.90;99.90
11532;DHT22;5822;51.000;5.874;2023-05-07T13:43:21;18.80;99.90
11532;DHT22;5822;51.000;5.874;2023-05-07T13:45:46;18.90;99.90
11532;DHT22;5822;51.000;5.874;2023-05-07T13:48:12;18.90;99.90
11532;DHT22;5822;51.000;5.874;2023-05-07T13:50:37;19.00;99.90
11532;DHT22;5822;51.000;5.874;2023-05-07T13:53:03;19.00;99.90
11532;DHT22;5822;51.000;5.874;2023-05-07T13:55:29;19.00;99.90
11532;DHT22;5822;51.000;5.874;2023-05-07T13:57:57;19.00;99.90
11532;DHT22;5822;51.000;5.874;2023-05-07T14:00:24;19.00;99.90
11532;DHT22;5822;51.000;5.874;2023-05-07T14:02:50;19.00;99.90
11532;DHT22;5822;51.000;5.874;2023-05-07T14:05:15;19.00;99.90
11532;DHT22;5822;51.000;5.874;2023-05-07T14:07:41;19.00;99.90
11532;DHT22;5822;51.000;5.874;2023-05-07T14:10:07;19.00;99.90
11532;DHT22;5822;51.000;5.874;2023-05-07T14:12:33;19.00;99.90
11532;DHT22;5822;51.000;5.874;2023-05-07T14:14:59;19.00;99.90
11532;DHT22;5822;51.000;5.874;2023-05-07T14:17:24;18.90;99.90
11532;DHT22;5822;51.000;5.874;2023-05-07T14:19:52;18.90;99.90
11532;DHT22;5822;51.000;5.874;2023-05-07T14:22:21;18.90;99.90
11532;DHT22;5822;51.000;5.874;2023-05-07T14:24:48;18.80;99.90
11532;DHT22;5822;51.000;5.874;2023-05-07T14:27:14;18.80;99.90
11532;DHT22;5822;51.000;5.874;2023-05-07T14:29:40;18.80;99.90
11532;DHT22;5822;51.000;5.874;2023-05-07T14:32:06;18.80;99.90
11532;DHT22;5822;51.000;5.874;2023-05-07T14:34:32;18.90;99.90
11532;DHT22;5822;51.000;5.874;2023-05-07T14:36:58;18.90;99.90
11532;DHT22;5822;51.000;5.874;2023-05-07T14:39:23;18.90;99.90
11532;DHT22;5822;51.000;5.874;2023-05-07T14:41:49;18.90;99.90
11532;DHT22;5822;51.000;5.874;2023-05-07T14:44:15;19.00;99.90
11532;DHT22;5822;51.000;5.874;2023-05-07T14:46:40;19.00;99.90
11532;DHT22;5822;51.000;5.874;2023-05-07T14:49:06;19.00;99.90
11532;DHT22;5822;51.000;5.874;2023-05-07T14:51:32;19.00;99.90
11532;DHT22;5822;51.000;5.874;2023-05-07T14:53:58;19.00;99.90
11532;DHT22;5822;51.000;5.874;2023-05-07T14:56:24;19.10;99.90
11532;DHT22;5822;51.000;5.874;2023-05-07T14:58:50;19.10;99.90
11532;DHT22;5822;51.000;5.874;2023-05-07T15:01:16;19.10;99.90
11532;DHT22;5822;51.000;5.874;2023-05-07T15:03:41;19.00;99.90
11532;DHT22;5822;51.000;5.874;2023-05-07T15:06:07;19.00;99.90
11532;DHT22;5822;51.000;5.874;2023-05-07T15:08:32;19.10;99.90
11532;DHT22;5822;51.000;5.874;2023-05-07T15:10:58;19.00;99.90
11532;DHT22;5822;51.000;5.874;2023-05-07T15:13:24;19.00;99.90
11532;DHT22;5822;51.000;5.874;2023-05-07T15:15:50;19.10;99.90
11532;DHT22;5822;51.000;5.874;2023-05-07T15:18:15;19.10;99.90
11532;DHT22;5822;51.000;5.874;2023-05-07T15:20:41;19.10;99.90
11532;DHT22;5822;51.000;5.874;2023-05-07T15:23:08;19.10;99.90
11532;DHT22;5822;51.000;5.874;2023-05-07T15:25:40;19.10;99.90
11532;DHT22;5822;51.000;5.874;2023-05-07T15:28:06;19.10;99.90
11532;DHT22;5822;51.000;5.874;2023-05-07T15:30:32;19.20;99.90
11532;DHT22;5822;51.000;5.874;2023-05-07T15:32:58;19.20;99.90
11532;DHT22;5822;51.000;5.874;2023-05-07T15:35:24;19.20;99.90
11532;DHT22;5822;51.000;5.874;2023-05-07T15:37:51;19.10;99.90
11532;DHT22;5822;51.000;5.874;2023-05-07T15:40:17;19.10;99.90
11532;DHT22;5822;51.000;5.874;2023-05-07T15:42:44;19.10;99.90
11532;DHT22;5822;51.000;5.874;2023-05-07T15:45:10;19.10;99.90
11532;DHT22;5822;51.000;5.874;2023-05-07T15:47:36;19.10;99.90
11532;DHT22;5822;51.000;5.874;2023-05-07T15:50:03;19.10;99.90
11532;DHT22;5822;51.000;5.874;2023-05-07T15:52:29;19.10;99.90
11532;DHT22;5822;51.000;5.874;2023-05-07T15:54:55;19.10;99.90